Time;durP1;ratioP1;P1;durP2;ratioP2;P2;SDS_P1;SDS_P2;PMS_P1;PMS_P2;Temp;Humidity;BMP_temperature;BMP_pressure;BME280_temperature;BME280_humidity;BME280_pressure;Samples;Min_cycle;Max_cycle;Signal;HPM_P1;HPM_P2
2023/04/06 00:00:08;;;;;;;22.35;18.33;;;;;;;;;;4865269;29;20127;-74
2023/04/06 00:02:34;;;;;;;23.90;19.30;;;;;;;;;;4866960;29;20028;-74
2023/04/06 00:05:00;;;;;;;28.10;19.42;;;;;;;;;;4865650;29;20032;-74
2023/04/06 00:07:26;;;;;;;23.33;20.05;;;;;;;;;;4866887;29;20025;-74
2023/04/06 00:09:51;;;;;;;22.88;18.98;;;;;;;;;;4865956;29;20382;-74
2023/04/06 00:12:16;;;;;;;19.08;17.10;;;;;;;;;;4865864;29;20100;-74
2023/04/06 00:14:42;;;;;;;25.60;20.60;;;;;;;;;;4866631;29;20021;-74
2023/04/06 00:17:07;;;;;;;22.13;19.50;;;;;;;;;;4865529;29;20089;-73
2023/04/06 00:19:33;;;;;;;25.83;20.00;;;;;;;;;;4866995;29;20063;-73
2023/04/06 00:21:59;;;;;;;28.63;21.67;;;;;;;;;;4860424;29;20491;-74
2023/04/06 00:24:24;;;;;;;27.58;21.15;;;;;;;;;;4860245;29;20090;-74
2023/04/06 00:26:50;;;;;;;24.67;19.13;;;;;;;;;;4865097;29;20025;-73
2023/04/06 00:29:15;;;;;;;28.52;22.13;;;;;;;;;;4865137;29;20526;-73
2023/04/06 00:31:40;;;;;;;24.75;19.58;;;;;;;;;;4866105;29;20444;-74
2023/04/06 00:34:06;;;;;;;26.45;20.42;;;;;;;;;;4865218;29;20120;-73
2023/04/06 00:36:31;;;;;;;24.42;19.70;;;;;;;;;;4866825;29;20017;-74
2023/04/06 00:38:56;;;;;;;25.90;20.15;;;;;;;;;;4868607;29;20085;-74
2023/04/06 00:41:22;;;;;;;21.77;18.67;;;;;;;;;;4870276;29;20411;-74
2023/04/06 00:43:48;;;;;;;26.58;21.73;;;;;;;;;;4868625;29;20033;-74
2023/04/06 00:46:13;;;;;;;29.55;21.65;;;;;;;;;;4870348;29;20037;-73
2023/04/06 00:48:40;;;;;;;27.10;20.13;;;;;;;;;;4869249;29;20025;-74
2023/04/06 00:51:05;;;;;;;24.20;20.40;;;;;;;;;;4868909;29;20097;-73
2023/04/06 00:53:31;;;;;;;25.48;19.65;;;;;;;;;;4870252;29;20060;-74
2023/04/06 00:55:56;;;;;;;29.73;21.88;;;;;;;;;;4868610;29;20032;-73
2023/04/06 00:58:21;;;;;;;26.00;18.85;;;;;;;;;;4870324;29;20028;-73
2023/04/06 01:00:47;;;;;;;22.92;20.27;;;;;;;;;;4868368;29;20024;-73
2023/04/06 01:03:12;;;;;;;23.25;18.67;;;;;;;;;;4870609;29;20024;-74
2023/04/06 01:05:40;;;;;;;25.85;20.65;;;;;;;;;;4868458;29;20101;-74
2023/04/06 01:08:06;;;;;;;19.38;17.15;;;;;;;;;;4869554;29;20120;-74
2023/04/06 01:10:31;;;;;;;22.45;18.05;;;;;;;;;;4864456;29;20948;-74
2023/04/06 01:12:56;;;;;;;21.85;18.00;;;;;;;;;;4864526;29;20045;-74
2023/04/06 01:15:22;;;;;;;20.88;18.02;;;;;;;;;;4870033;29;20199;-74
2023/04/06 01:17:47;;;;;;;22.45;20.05;;;;;;;;;;4867650;29;20483;-74
2023/04/06 01:20:13;;;;;;;20.10;17.30;;;;;;;;;;4869470;29;20020;-74
2023/04/06 01:22:38;;;;;;;21.83;18.70;;;;;;;;;;4868000;29;20020;-74
2023/04/06 01:25:04;;;;;;;22.90;17.98;;;;;;;;;;4869646;29;20504;-74
2023/04/06 01:27:30;;;;;;;22.50;17.88;;;;;;;;;;4868479;29;20104;-74
2023/04/06 01:29:55;;;;;;;19.60;17.52;;;;;;;;;;4867685;29;20445;-75
2023/04/06 01:32:21;;;;;;;22.35;17.75;;;;;;;;;;4869222;29;20061;-75
2023/04/06 01:34:46;;;;;;;19.73;17.35;;;;;;;;;;4867870;29;20021;-74
2023/04/06 01:37:11;;;;;;;20.98;18.13;;;;;;;;;;4869788;29;20021;-74
2023/04/06 01:39:37;;;;;;;21.92;19.38;;;;;;;;;;4866219;29;20033;-74
2023/04/06 01:42:02;;;;;;;22.33;19.90;;;;;;;;;;4869374;29;20109;-74
2023/04/06 01:44:30;;;;;;;24.40;19.70;;;;;;;;;;4868035;29;20100;-74
2023/04/06 01:46:55;;;;;;;20.95;17.00;;;;;;;;;;4868666;29;20036;-75
2023/04/06 01:49:20;;;;;;;19.85;17.20;;;;;;;;;;4868254;29;20040;-74
2023/04/06 01:51:46;;;;;;;17.92;16.02;;;;;;;;;;4867864;29;20926;-75
2023/04/06 01:54:11;;;;;;;20.00;17.70;;;;;;;;;;4866116;29;20025;-74
2023/04/06 01:56:36;;;;;;;20.08;17.90;;;;;;;;;;4863045;29;20503;-74
2023/04/06 01:59:02;;;;;;;18.88;16.58;;;;;;;;;;4869350;29;20085;-75
2023/04/06 02:01:27;;;;;;;20.25;17.05;;;;;;;;;;4867426;29;20025;-74
2023/04/06 02:03:52;;;;;;;20.58;18.40;;;;;;;;;;4879353;29;20080;-74
2023/04/06 02:06:17;;;;;;;18.88;15.35;;;;;;;;;;4867799;29;20032;-74
2023/04/06 02:08:43;;;;;;;18.35;16.42;;;;;;;;;;4868138;29;20106;-74
2023/04/06 02:11:08;;;;;;;18.60;16.10;;;;;;;;;;4854247;29;20438;-74
2023/04/06 02:13:34;;;;;;;21.70;17.63;;;;;;;;;;4867636;29;20021;-75
2023/04/06 02:15:59;;;;;;;21.77;17.23;;;;;;;;;;4868688;29;20028;-74
2023/04/06 02:18:25;;;;;;;18.63;16.65;;;;;;;;;;4867317;29;20068;-75
2023/04/06 02:20:50;;;;;;;19.80;16.90;;;;;;;;;;4868573;29;20029;-74
2023/04/06 02:23:16;;;;;;;21.25;17.50;;;;;;;;;;4867361;29;20956;-74
2023/04/06 02:25:41;;;;;;;18.88;16.88;;;;;;;;;;4868607;29;20085;-75
2023/04/06 02:28:07;;;;;;;17.65;15.85;;;;;;;;;;4867638;29;20060;-74
2023/04/06 02:30:32;;;;;;;18.13;16.20;;;;;;;;;;4867713;29;20451;-74
2023/04/06 02:32:58;;;;;;;18.58;16.17;;;;;;;;;;4855051;29;20025;-75
2023/04/06 02:35:25;;;;;;;19.20;16.58;;;;;;;;;;4865736;29;20029;-75
2023/04/06 02:37:50;;;;;;;18.60;15.93;;;;;;;;;;4868223;29;20025;-75
2023/04/06 02:40:15;;;;;;;17.23;15.27;;;;;;;;;;4865052;29;20043;-75
2023/04/06 02:42:41;;;;;;;17.17;15.02;;;;;;;;;;4868646;29;20017;-75
2023/04/06 02:45:06;;;;;;;16.77;15.00;;;;;;;;;;4854073;29;20935;-75
2023/04/06 02:47:32;;;;;;;16.05;14.45;;;;;;;;;;4867204;29;20017;-75
2023/04/06 02:49:58;;;;;;;18.17;16.27;;;;;;;;;;4867452;29;20113;-75
2023/04/06 02:52:23;;;;;;;19.40;17.13;;;;;;;;;;4866465;29;20499;-75
2023/04/06 02:54:48;;;;;;;20.05;17.17;;;;;;;;;;4864279;29;20117;-75
2023/04/06 02:57:13;;;;;;;22.55;17.48;;;;;;;;;;4866201;29;20025;-75
2023/04/06 02:59:39;;;;;;;19.38;17.13;;;;;;;;;;4867152;29;20037;-75
2023/04/06 03:02:04;;;;;;;20.83;17.00;;;;;;;;;;4866285;29;20025;-75
2023/04/06 03:04:30;;;;;;;22.40;17.83;;;;;;;;;;4864811;29;20029;-74
2023/04/06 03:06:55;;;;;;;25.77;18.13;;;;;;;;;;4861609;29;20085;-75
2023/04/06 03:09:21;;;;;;;22.25;19.15;;;;;;;;;;4867376;29;20025;-75
2023/04/06 03:11:46;;;;;;;23.40;20.08;;;;;;;;;;4867951;29;20025;-75
2023/04/06 03:14:11;;;;;;;24.17;21.02;;;;;;;;;;4867153;29;20039;-75
2023/04/06 03:16:37;;;;;;;25.17;20.20;;;;;;;;;;4870377;29;20013;-75
2023/04/06 03:19:02;;;;;;;29.10;20.95;;;;;;;;;;4867008;29;20436;-76
2023/04/06 03:21:27;;;;;;;28.05;19.67;;;;;;;;;;4867997;29;20025;-75
2023/04/06 03:23:54;;;;;;;25.10;20.13;;;;;;;;;;4866239;29;20037;-76
2023/04/06 03:26:19;;;;;;;23.75;20.38;;;;;;;;;;4867214;29;20494;-75
2023/04/06 03:28:44;;;;;;;23.92;19.58;;;;;;;;;;4865816;29;20113;-75
2023/04/06 03:31:10;;;;;;;24.98;19.65;;;;;;;;;;4864229;29;20052;-76
2023/04/06 03:33:35;;;;;;;25.88;20.23;;;;;;;;;;4853853;29;20032;-75
2023/04/06 03:36:00;;;;;;;24.08;19.85;;;;;;;;;;4865722;29;20527;-76
2023/04/06 03:38:26;;;;;;;27.90;20.55;;;;;;;;;;4866001;29;20045;-75
2023/04/06 03:40:51;;;;;;;23.85;20.48;;;;;;;;;;4869232;29;20031;-75
2023/04/06 03:43:16;;;;;;;23.65;17.80;;;;;;;;;;4865438;29;20025;-75
2023/04/06 03:45:41;;;;;;;26.77;19.88;;;;;;;;;;4866035;29;20021;-76
2023/04/06 03:48:07;;;;;;;29.77;21.13;;;;;;;;;;4866959;29;20078;-76
2023/04/06 03:50:32;;;;;;;22.45;19.92;;;;;;;;;;4866712;29;20021;-75
2023/04/06 03:52:57;;;;;;;25.48;20.15;;;;;;;;;;4865964;29;20941;-75
2023/04/06 03:55:23;;;;;;;25.75;20.75;;;;;;;;;;4866590;29;20167;-76
2023/04/06 03:57:48;;;;;;;27.23;19.67;;;;;;;;;;4865706;29;21067;-75
2023/04/06 04:00:13;;;;;;;25.60;19.75;;;;;;;;;;4867074;29;20032;-75
2023/04/06 04:02:39;;;;;;;23.30;18.90;;;;;;;;;;4865753;29;20105;-75
2023/04/06 04:05:04;;;;;;;25.15;20.73;;;;;;;;;;4866950;29;20053;-75
2023/04/06 04:07:30;;;;;;;25.42;19.80;;;;;;;;;;4865575;29;20092;-76
2023/04/06 04:09:55;;;;;;;21.67;17.88;;;;;;;;;;4866548;29;20045;-75
2023/04/06 04:12:21;;;;;;;23.95;19.42;;;;;;;;;;4866348;29;20025;-75
2023/04/06 04:14:46;;;;;;;25.45;19.30;;;;;;;;;;4865520;29;20488;-76
2023/04/06 04:17:11;;;;;;;21.98;18.52;;;;;;;;;;4866968;29;20115;-75
2023/04/06 04:19:36;;;;;;;23.13;18.35;;;;;;;;;;4865139;29;20013;-75
2023/04/06 04:22:04;;;;;;;22.30;18.52;;;;;;;;;;4866917;29;20025;-75
2023/04/06 04:24:30;;;;;;;25.20;19.98;;;;;;;;;;4859196;29;20515;-75
2023/04/06 04:26:56;;;;;;;23.60;19.23;;;;;;;;;;4866867;29;20049;-76
2023/04/06 04:29:22;;;;;;;22.88;19.38;;;;;;;;;;4864340;29;20033;-75
2023/04/06 04:31:47;;;;;;;22.15;19.25;;;;;;;;;;4865603;29;20113;-75
2023/04/06 04:34:13;;;;;;;23.60;19.20;;;;;;;;;;4859194;29;20036;-76
2023/04/06 04:36:38;;;;;;;46.97;29.92;;;;;;;;;;4875469;29;20076;-76
2023/04/06 04:39:03;;;;;;;22.67;19.38;;;;;;;;;;4857996;29;20120;-75
2023/04/06 04:41:29;;;;;;;26.70;21.02;;;;;;;;;;4857363;29;20439;-75
2023/04/06 04:43:54;;;;;;;26.90;21.27;;;;;;;;;;4865372;29;20025;-74
2023/04/06 04:46:20;;;;;;;26.08;20.27;;;;;;;;;;4863440;29;20143;-75
2023/04/06 04:48:45;;;;;;;26.15;21.23;;;;;;;;;;4866156;29;20475;-75
2023/04/06 04:51:10;;;;;;;25.25;20.80;;;;;;;;;;4866199;29;20032;-74
2023/04/06 04:53:36;;;;;;;26.55;21.45;;;;;;;;;;4864989;29;20551;-75
2023/04/06 04:56:01;;;;;;;26.92;22.27;;;;;;;;;;4861057;29;20037;-75
2023/04/06 04:58:26;;;;;;;32.08;22.77;;;;;;;;;;4864647;29;20025;-75
2023/04/06 05:00:51;;;;;;;27.65;21.75;;;;;;;;;;4866312;29;20571;-75
2023/04/06 05:03:22;;;;;;;29.00;23.20;;;;;;;;;;4864554;29;20123;-75
2023/04/06 05:05:47;;;;;;;28.10;21.00;;;;;;;;;;4866272;29;20111;-74
2023/04/06 05:08:12;;;;;;;27.40;21.15;;;;;;;;;;4864629;29;20164;-75
2023/04/06 05:10:38;;;;;;;25.55;21.40;;;;;;;;;;4865379;29;20061;-75
2023/04/06 05:13:03;;;;;;;26.40;20.73;;;;;;;;;;4865480;29;20028;-75
2023/04/06 05:15:28;;;;;;;28.73;21.75;;;;;;;;;;4863688;29;20065;-75
2023/04/06 05:17:54;;;;;;;26.95;22.73;;;;;;;;;;4866552;29;20025;-75
2023/04/06 05:20:19;;;;;;;26.05;20.65;;;;;;;;;;4846948;29;20047;-75
2023/04/06 05:22:45;;;;;;;27.10;21.23;;;;;;;;;;4866686;29;20029;-75
2023/04/06 05:25:10;;;;;;;26.02;19.75;;;;;;;;;;4866898;29;20041;-75
2023/04/06 05:27:35;;;;;;;26.05;19.88;;;;;;;;;;4868516;29;20157;-74
2023/04/06 05:30:01;;;;;;;21.83;17.58;;;;;;;;;;4864378;29;20158;-75
2023/04/06 05:32:27;;;;;;;24.52;19.85;;;;;;;;;;4868096;29;20116;-74
2023/04/06 05:34:52;;;;;;;24.20;19.75;;;;;;;;;;4869492;29;20084;-75
2023/04/06 05:37:17;;;;;;;24.75;20.42;;;;;;;;;;4867834;29;20020;-74
2023/04/06 05:39:43;;;;;;;23.23;19.48;;;;;;;;;;4869396;29;20029;-74
2023/04/06 05:42:08;;;;;;;25.48;19.83;;;;;;;;;;4867571;29;20032;-74
2023/04/06 05:44:33;;;;;;;24.40;18.35;;;;;;;;;;4868071;29;20029;-75
2023/04/06 05:46:59;;;;;;;22.20;17.98;;;;;;;;;;4867699;29;20841;-74
2023/04/06 05:49:24;;;;;;;23.50;18.83;;;;;;;;;;4868789;29;20033;-74
2023/04/06 05:51:50;;;;;;;27.08;20.25;;;;;;;;;;4868781;29;20025;-74
2023/04/06 05:54:15;;;;;;;24.60;18.70;;;;;;;;;;4868079;29;20084;-76
2023/04/06 05:56:40;;;;;;;23.73;17.92;;;;;;;;;;4869274;29;20029;-75
2023/04/06 05:59:07;;;;;;;22.27;17.80;;;;;;;;;;4867442;29;20024;-76
2023/04/06 06:01:33;;;;;;;23.92;16.75;;;;;;;;;;4869081;29;20040;-76
2023/04/06 06:04:00;;;;;;;20.40;17.80;;;;;;;;;;4867266;29;20029;-75
2023/04/06 06:06:27;;;;;;;21.15;16.55;;;;;;;;;;4868666;29;20068;-75
2023/04/06 06:08:52;;;;;;;19.60;17.55;;;;;;;;;;4867641;29;20063;-76
2023/04/06 06:11:17;;;;;;;19.15;16.33;;;;;;;;;;4863914;29;20626;-76
2023/04/06 06:13:43;;;;;;;19.02;15.63;;;;;;;;;;4867548;29;20033;-75
2023/04/06 06:16:08;;;;;;;22.58;17.65;;;;;;;;;;4865846;29;20041;-76
2023/04/06 06:18:34;;;;;;;16.80;15.10;;;;;;;;;;4867729;29;20431;-76
2023/04/06 06:21:00;;;;;;;16.88;15.13;;;;;;;;;;4866784;29;20033;-75
2023/04/06 06:23:25;;;;;;;16.73;14.93;;;;;;;;;;4869095;29;20400;-76
2023/04/06 06:25:50;;;;;;;16.73;14.00;;;;;;;;;;4865584;29;20044;-75
2023/04/06 06:28:16;;;;;;;15.27;13.65;;;;;;;;;;4868396;29;20032;-75
2023/04/06 06:30:41;;;;;;;15.30;13.30;;;;;;;;;;4865870;29;20099;-74
2023/04/06 06:33:06;;;;;;;15.05;12.95;;;;;;;;;;4856776;29;20036;-75
2023/04/06 06:35:32;;;;;;;16.17;14.48;;;;;;;;;;4857498;29;20013;-75
2023/04/06 06:37:57;;;;;;;16.23;14.50;;;;;;;;;;4860391;29;20475;-75
2023/04/06 06:40:23;;;;;;;14.15;12.68;;;;;;;;;;4861201;29;20081;-75
2023/04/06 06:42:49;;;;;;;13.93;12.27;;;;;;;;;;4862080;29;20045;-75
2023/04/06 06:45:14;;;;;;;16.10;13.02;;;;;;;;;;4863938;29;20412;-74
2023/04/06 06:47:40;;;;;;;15.10;13.50;;;;;;;;;;4864954;29;20096;-74
2023/04/06 06:50:06;;;;;;;16.80;14.18;;;;;;;;;;4862042;29;20144;-74
2023/04/06 06:52:31;;;;;;;19.30;14.63;;;;;;;;;;4859389;29;20116;-74
2023/04/06 06:54:57;;;;;;;18.20;15.55;;;;;;;;;;4859833;29;20057;-74
2023/04/06 06:57:22;;;;;;;19.40;14.80;;;;;;;;;;4857598;29;20085;-73
2023/04/06 06:59:48;;;;;;;20.73;15.10;;;;;;;;;;4855873;29;20921;-74
2023/04/06 07:02:13;;;;;;;19.30;14.55;;;;;;;;;;4857170;29;20116;-74
2023/04/06 07:04:38;;;;;;;19.15;15.73;;;;;;;;;;4851678;29;20093;-75
2023/04/06 07:07:03;;;;;;;20.27;14.60;;;;;;;;;;4867981;29;20032;-73
2023/04/06 07:09:29;;;;;;;15.85;14.00;;;;;;;;;;4855470;29;20126;-74
2023/04/06 07:11:56;;;;;;;18.23;15.00;;;;;;;;;;4856254;29;20047;-74
2023/04/06 07:14:21;;;;;;;21.77;14.45;;;;;;;;;;4866267;29;20053;-74
2023/04/06 07:16:48;;;;;;;14.75;12.82;;;;;;;;;;4857763;29;20020;-74
2023/04/06 07:19:14;;;;;;;14.70;13.20;;;;;;;;;;4867026;29;20030;-74
2023/04/06 07:21:39;;;;;;;15.80;12.75;;;;;;;;;;4856306;29;20040;-74
2023/04/06 07:24:04;;;;;;;15.38;12.55;;;;;;;;;;4858536;29;20031;-74
2023/04/06 07:26:30;;;;;;;14.25;12.75;;;;;;;;;;4864145;29;20085;-74
2023/04/06 07:28:55;;;;;;;15.70;12.57;;;;;;;;;;4856215;29;20534;-74
2023/04/06 07:31:20;;;;;;;24.05;14.02;;;;;;;;;;4863251;29;20124;-74
2023/04/06 07:33:46;;;;;;;16.83;12.95;;;;;;;;;;4865183;29;20021;-74
2023/04/06 07:36:12;;;;;;;15.18;13.55;;;;;;;;;;4862281;29;20052;-75
2023/04/06 07:38:37;;;;;;;16.75;13.88;;;;;;;;;;4857303;29;20029;-74
2023/04/06 07:41:05;;;;;;;18.30;13.57;;;;;;;;;;4864966;29;20068;-75
2023/04/06 07:43:30;;;;;;;16.02;12.40;;;;;;;;;;4864325;29;20021;-75
2023/04/06 07:45:57;;;;;;;15.00;13.35;;;;;;;;;;4865194;29;20120;-75
2023/04/06 07:48:22;;;;;;;14.65;13.13;;;;;;;;;;4865947;29;20403;-75
2023/04/06 07:50:47;;;;;;;15.65;13.70;;;;;;;;;;4865348;29;20037;-75
2023/04/06 07:53:13;;;;;;;13.77;12.30;;;;;;;;;;4866525;29;20025;-74
2023/04/06 07:55:38;;;;;;;12.13;10.95;;;;;;;;;;4865439;29;20031;-75
2023/04/06 07:58:03;;;;;;;13.55;10.77;;;;;;;;;;4865196;29;20029;-75
2023/04/06 08:00:29;;;;;;;11.55;10.38;;;;;;;;;;4865199;29;20024;-75
2023/04/06 08:02:55;;;;;;;11.70;10.38;;;;;;;;;;4866854;29;20621;-76
2023/04/06 08:05:20;;;;;;;11.25;10.15;;;;;;;;;;4865033;29;20021;-75
2023/04/06 08:07:45;;;;;;;12.15;10.77;;;;;;;;;;4865263;29;20028;-75
2023/04/06 08:10:11;;;;;;;12.45;11.20;;;;;;;;;;4865170;29;20128;-75
2023/04/06 08:12:36;;;;;;;12.60;11.40;;;;;;;;;;4864381;29;20021;-75
2023/04/06 08:15:02;;;;;;;12.73;11.35;;;;;;;;;;4865937;29;20060;-75
2023/04/06 08:17:30;;;;;;;12.15;10.95;;;;;;;;;;4866067;29;20021;-75
2023/04/06 08:19:55;;;;;;;13.63;12.32;;;;;;;;;;4866576;29;20076;-75
2023/04/06 08:22:20;;;;;;;12.32;11.18;;;;;;;;;;4865048;29;20471;-75
2023/04/06 08:24:46;;;;;;;12.98;11.52;;;;;;;;;;4865009;29;20029;-75
2023/04/06 08:27:13;;;;;;;11.43;10.23;;;;;;;;;;4862673;29;20029;-75
2023/04/06 08:29:38;;;;;;;15.30;10.43;;;;;;;;;;4865948;29;20064;-75
2023/04/06 08:32:05;;;;;;;12.20;11.05;;;;;;;;;;4865255;29;20088;-76
2023/04/06 08:34:30;;;;;;;14.57;11.88;;;;;;;;;;4864360;29;20037;-76
2023/04/06 08:36:56;;;;;;;11.95;10.75;;;;;;;;;;4866398;29;20681;-77
2023/04/06 08:39:25;;;;;;;15.38;12.07;;;;;;;;;;4864247;29;20036;-76
2023/04/06 08:41:52;;;;;;;11.45;10.35;;;;;;;;;;4865271;29;20064;-76
2023/04/06 08:44:18;;;;;;;12.15;10.95;;;;;;;;;;4863834;29;20048;-76
2023/04/06 08:46:43;;;;;;;12.52;11.23;;;;;;;;;;4866796;29;20059;-76
2023/04/06 08:49:08;;;;;;;13.00;11.10;;;;;;;;;;4864396;29;20598;-75
2023/04/06 08:51:34;;;;;;;12.88;11.68;;;;;;;;;;4865140;29;20563;-76
2023/04/06 08:54:00;;;;;;;13.68;12.27;;;;;;;;;;4866184;29;20057;-76
2023/04/06 08:56:26;;;;;;;10.95;9.88;;;;;;;;;;4863420;29;20025;-77
2023/04/06 08:58:55;;;;;;;11.57;10.13;;;;;;;;;;4867908;29;20029;-78
2023/04/06 09:01:21;;;;;;;10.57;9.48;;;;;;;;;;4868467;29;20554;-72
2023/04/06 09:03:48;;;;;;;11.18;10.18;;;;;;;;;;4870506;29;20056;-75
2023/04/06 09:06:14;;;;;;;12.35;10.77;;;;;;;;;;4859483;29;20179;-76
2023/04/06 09:08:40;;;;;;;11.80;10.70;;;;;;;;;;4867277;29;20105;-77
2023/04/06 09:11:06;;;;;;;11.38;10.35;;;;;;;;;;4857996;29;20036;-77
2023/04/06 09:13:31;;;;;;;10.98;9.93;;;;;;;;;;4859673;29;20029;-77
2023/04/06 09:16:01;;;;;;;13.55;10.27;;;;;;;;;;4859807;29;20029;-77
2023/04/06 09:18:30;;;;;;;14.15;10.20;;;;;;;;;;4863197;29;20021;-77
2023/04/06 09:21:00;;;;;;;12.60;10.80;;;;;;;;;;4857371;29;20076;-75
2023/04/06 09:23:25;;;;;;;11.65;10.55;;;;;;;;;;4863224;29;20029;-77
2023/04/06 09:25:51;;;;;;;11.20;9.95;;;;;;;;;;4856174;29;20513;-76
2023/04/06 09:28:16;;;;;;;10.38;9.43;;;;;;;;;;4853999;29;20560;-77
2023/04/06 09:30:49;;;;;;;12.20;10.93;;;;;;;;;;4855662;29;20503;-77
2023/04/06 09:33:21;;;;;;;11.85;10.75;;;;;;;;;;4854367;29;20033;-77
2023/04/06 09:35:52;;;;;;;10.98;10.07;;;;;;;;;;4868057;29;20464;-76
2023/04/06 09:38:18;;;;;;;11.07;10.07;;;;;;;;;;4872767;29;20597;-77
2023/04/06 09:40:52;;;;;;;11.55;10.32;;;;;;;;;;4862041;29;20033;-76
2023/04/06 09:43:25;;;;;;;10.93;9.93;;;;;;;;;;4856455;29;20028;-76
2023/04/06 09:45:50;;;;;;;11.18;10.07;;;;;;;;;;4867317;29;20073;-77
2023/04/06 09:48:16;;;;;;;10.98;9.88;;;;;;;;;;4864674;29;20056;-76
2023/04/06 09:50:41;;;;;;;15.90;11.48;;;;;;;;;;4857823;29;20036;-77
2023/04/06 09:53:07;;;;;;;12.02;10.82;;;;;;;;;;4863127;29;20017;-76
2023/04/06 09:55:35;;;;;;;11.05;9.98;;;;;;;;;;4873826;29;20033;-77
2023/04/06 09:58:00;;;;;;;11.05;9.93;;;;;;;;;;4870800;29;20069;-77
2023/04/06 10:00:27;;;;;;;12.57;11.32;;;;;;;;;;4859039;29;20060;-77
2023/04/06 10:02:58;;;;;;;11.60;10.50;;;;;;;;;;4856315;29;20551;-77
2023/04/06 10:05:35;;;;;;;11.07;10.13;;;;;;;;;;4863500;29;20618;-76
2023/04/06 10:08:04;;;;;;;11.68;10.57;;;;;;;;;;4853258;29;20495;-77
2023/04/06 10:10:30;;;;;;;12.18;10.93;;;;;;;;;;4859223;29;20041;-76
2023/04/06 10:12:55;;;;;;;11.20;10.13;;;;;;;;;;4858868;29;21019;-77
2023/04/06 10:15:21;;;;;;;13.35;11.02;;;;;;;;;;4858026;29;20028;-76
2023/04/06 10:17:47;;;;;;;13.20;11.75;;;;;;;;;;4873509;29;20115;-76
2023/04/06 10:20:16;;;;;;;10.65;9.75;;;;;;;;;;4855467;29;20096;-76
2023/04/06 10:22:52;;;;;;;17.77;9.77;;;;;;;;;;4865113;29;20404;-76
2023/04/06 10:25:29;;;;;;;11.20;10.10;;;;;;;;;;4865711;29;20025;-76
2023/04/06 10:28:08;;;;;;;11.63;10.52;;;;;;;;;;4879936;29;20048;-76
2023/04/06 10:30:35;;;;;;;11.67;10.47;;;;;;;;;;4858540;29;20033;-77
2023/04/06 10:33:13;;;;;;;13.38;11.02;;;;;;;;;;4868097;29;20124;-76
2023/04/06 10:35:38;;;;;;;11.68;10.43;;;;;;;;;;4858672;29;20064;-77
2023/04/06 10:38:04;;;;;;;10.80;9.80;;;;;;;;;;4856616;29;20471;-76
2023/04/06 10:40:31;;;;;;;11.35;10.13;;;;;;;;;;4864972;29;20466;-76
2023/04/06 10:43:06;;;;;;;10.70;9.77;;;;;;;;;;4862577;29;20536;-75
2023/04/06 10:45:31;;;;;;;11.32;10.32;;;;;;;;;;4860267;29;20017;-75
2023/04/06 10:47:57;;;;;;;10.88;9.88;;;;;;;;;;4868798;29;20084;-76
2023/04/06 10:50:23;;;;;;;11.30;10.40;;;;;;;;;;4867714;29;20487;-76
2023/04/06 10:52:59;;;;;;;10.30;9.32;;;;;;;;;;4867085;29;20028;-74
2023/04/06 10:55:25;;;;;;;10.27;9.32;;;;;;;;;;4867435;29;20028;-77
2023/04/06 10:57:51;;;;;;;12.27;11.23;;;;;;;;;;4868791;29;20558;-77
2023/04/06 11:00:17;;;;;;;11.07;10.15;;;;;;;;;;4867967;29;20021;-77
2023/04/06 11:02:42;;;;;;;10.40;9.38;;;;;;;;;;4869132;29;20701;-77
2023/04/06 11:05:07;;;;;;;10.73;9.63;;;;;;;;;;4867422;29;20407;-77
2023/04/06 11:07:33;;;;;;;10.95;10.02;;;;;;;;;;4867785;29;20169;-77
2023/04/06 11:09:58;;;;;;;10.55;9.50;;;;;;;;;;4865993;29;20065;-76
2023/04/06 11:12:25;;;;;;;10.75;9.75;;;;;;;;;;4857440;29;20949;-76
2023/04/06 11:15:03;;;;;;;10.30;9.40;;;;;;;;;;4863783;29;20021;-76
2023/04/06 11:17:29;;;;;;;8.55;7.78;;;;;;;;;;4847245;29;20033;-76
2023/04/06 11:19:55;;;;;;;10.40;9.43;;;;;;;;;;4868194;29;20873;-77
2023/04/06 11:22:21;;;;;;;9.95;9.02;;;;;;;;;;4862013;29;20018;-76
2023/04/06 11:24:46;;;;;;;10.20;9.20;;;;;;;;;;4866255;29;20526;-76
2023/04/06 11:27:14;;;;;;;12.25;9.35;;;;;;;;;;4867290;29;20041;-76
2023/04/06 11:29:40;;;;;;;9.70;8.90;;;;;;;;;;4866045;29;20037;-76
2023/04/06 11:32:07;;;;;;;12.48;10.45;;;;;;;;;;4865568;29;20562;-76
2023/04/06 11:34:38;;;;;;;9.38;8.60;;;;;;;;;;4864702;29;20087;-75
2023/04/06 11:37:06;;;;;;;9.93;9.02;;;;;;;;;;4865327;29;20031;-76
2023/04/06 11:39:37;;;;;;;8.85;8.15;;;;;;;;;;4864031;29;20057;-75
2023/04/06 11:42:02;;;;;;;9.73;8.70;;;;;;;;;;4865574;29;20021;-76
2023/04/06 11:44:35;;;;;;;8.27;7.63;;;;;;;;;;4864702;29;20021;-75
2023/04/06 11:47:01;;;;;;;9.70;8.82;;;;;;;;;;4863733;29;20037;-76
2023/04/06 11:49:29;;;;;;;10.05;9.15;;;;;;;;;;4866445;29;20025;-76
2023/04/06 11:51:55;;;;;;;11.73;8.18;;;;;;;;;;4861263;29;20029;-74
2023/04/06 11:54:30;;;;;;;8.35;7.70;;;;;;;;;;4865637;29;20056;-75
2023/04/06 11:56:56;;;;;;;9.40;8.32;;;;;;;;;;4865443;29;20427;-76
2023/04/06 11:59:22;;;;;;;9.43;8.52;;;;;;;;;;4867255;29;20436;-76
2023/04/06 12:01:48;;;;;;;9.50;8.38;;;;;;;;;;4860143;29;20025;-76
2023/04/06 12:04:13;;;;;;;8.80;8.02;;;;;;;;;;4866213;29;20032;-76
2023/04/06 12:06:39;;;;;;;8.85;7.97;;;;;;;;;;4862497;29;20079;-76
2023/04/06 12:09:04;;;;;;;8.93;8.00;;;;;;;;;;4865898;29;20104;-76
2023/04/06 12:11:29;;;;;;;8.60;7.80;;;;;;;;;;4856774;29;20388;-75
2023/04/06 12:13:55;;;;;;;9.20;8.40;;;;;;;;;;4864846;29;20510;-76
2023/04/06 12:16:20;;;;;;;8.82;8.13;;;;;;;;;;4858243;29;20060;-76
2023/04/06 12:18:45;;;;;;;8.23;7.63;;;;;;;;;;4859148;29;20033;-76
2023/04/06 12:21:11;;;;;;;8.50;7.78;;;;;;;;;;4857852;29;20025;-76
2023/04/06 12:23:36;;;;;;;8.70;8.00;;;;;;;;;;4860106;29;20377;-76
2023/04/06 12:26:02;;;;;;;8.57;7.88;;;;;;;;;;4851238;29;20675;-75
2023/04/06 12:28:28;;;;;;;9.30;8.35;;;;;;;;;;4861654;29;20025;-76
2023/04/06 12:30:54;;;;;;;7.82;7.25;;;;;;;;;;4859103;29;20107;-76
2023/04/06 12:33:19;;;;;;;8.55;7.85;;;;;;;;;;4860983;29;20025;-76
2023/04/06 12:35:44;;;;;;;8.07;7.38;;;;;;;;;;4865478;29;20085;-75
2023/04/06 12:38:10;;;;;;;8.77;7.97;;;;;;;;;;4872385;29;20089;-76
2023/04/06 12:40:39;;;;;;;8.68;7.90;;;;;;;;;;4867963;29;20084;-77
2023/04/06 12:43:05;;;;;;;7.88;6.93;;;;;;;;;;4861411;29;20096;-76
2023/04/06 12:45:31;;;;;;;8.82;7.90;;;;;;;;;;4871868;29;20499;-76
2023/04/06 12:47:57;;;;;;;8.93;8.23;;;;;;;;;;4867014;29;20099;-76
2023/04/06 12:50:22;;;;;;;8.13;7.40;;;;;;;;;;4870478;29;20447;-76
2023/04/06 12:52:47;;;;;;;9.00;7.50;;;;;;;;;;4882341;29;20043;-76
2023/04/06 12:55:13;;;;;;;7.65;7.05;;;;;;;;;;4874737;29;20430;-76
2023/04/06 12:57:38;;;;;;;7.20;6.60;;;;;;;;;;4869432;29;20020;-76
2023/04/06 13:00:04;;;;;;;8.38;7.68;;;;;;;;;;4872275;29;20045;-76
2023/04/06 13:02:30;;;;;;;9.70;8.68;;;;;;;;;;4869225;29;20484;-76
2023/04/06 13:04:55;;;;;;;8.07;7.40;;;;;;;;;;4871102;29;20165;-76
2023/04/06 13:07:21;;;;;;;8.70;7.25;;;;;;;;;;4868052;29;20115;-75
2023/04/06 13:09:49;;;;;;;8.27;7.50;;;;;;;;;;4869231;29;20037;-76
2023/04/06 13:12:14;;;;;;;7.53;6.93;;;;;;;;;;4869932;29;20013;-75
2023/04/06 13:14:40;;;;;;;8.18;7.35;;;;;;;;;;4869314;29;20092;-76
2023/04/06 13:17:06;;;;;;;7.80;7.03;;;;;;;;;;4862747;29;20053;-75
2023/04/06 13:19:31;;;;;;;9.93;6.47;;;;;;;;;;4866871;29;20147;-75
2023/04/06 13:21:57;;;;;;;7.25;6.63;;;;;;;;;;4870592;29;20143;-75
2023/04/06 13:24:23;;;;;;;7.65;6.95;;;;;;;;;;4867312;29;20025;-76
2023/04/06 13:26:49;;;;;;;7.22;6.63;;;;;;;;;;4869858;29;20029;-75
2023/04/06 13:29:14;;;;;;;7.80;7.10;;;;;;;;;;4870917;29;20035;-76
2023/04/06 13:31:40;;;;;;;8.07;7.28;;;;;;;;;;4869689;29;20089;-76
2023/04/06 13:34:06;;;;;;;9.70;7.88;;;;;;;;;;4871614;29;20128;-76
2023/04/06 13:36:32;;;;;;;9.45;7.60;;;;;;;;;;4867444;29;20036;-76
2023/04/06 13:38:57;;;;;;;7.93;7.32;;;;;;;;;;4870571;29;20399;-76
2023/04/06 13:41:23;;;;;;;7.28;6.68;;;;;;;;;;4869523;29;20558;-76
2023/04/06 13:43:49;;;;;;;8.18;7.45;;;;;;;;;;4864166;29;20044;-76
2023/04/06 13:46:15;;;;;;;7.72;7.03;;;;;;;;;;4867682;29;20032;-76
2023/04/06 13:48:40;;;;;;;7.80;7.13;;;;;;;;;;4866635;29;20025;-76
2023/04/06 13:51:12;;;;;;;8.15;7.25;;;;;;;;;;4861214;29;20470;-76
2023/04/06 13:53:38;;;;;;;7.80;7.10;;;;;;;;;;4853772;29;20025;-77
2023/04/06 13:56:04;;;;;;;6.78;6.13;;;;;;;;;;4857650;29;20089;-76
2023/04/06 13:58:30;;;;;;;8.52;7.25;;;;;;;;;;4869129;29;20033;-77
2023/04/06 14:01:01;;;;;;;6.40;5.80;;;;;;;;;;4865141;29;20088;-76
2023/04/06 14:03:27;;;;;;;6.75;6.20;;;;;;;;;;4862796;29;20052;-76
2023/04/06 14:05:52;;;;;;;7.40;6.70;;;;;;;;;;4871680;29;20499;-75
2023/04/06 14:08:17;;;;;;;7.95;7.13;;;;;;;;;;4870842;29;20030;-75
2023/04/06 14:10:43;;;;;;;8.73;7.00;;;;;;;;;;4869244;29;20173;-76
2023/04/06 14:13:08;;;;;;;7.53;6.82;;;;;;;;;;4869845;29;20270;-75
2023/04/06 14:15:34;;;;;;;7.63;6.93;;;;;;;;;;4866351;29;20543;-75